createdAt,value
2023-06-26T00:00:54.832Z,9.90
2023-06-26T00:03:21.630Z,23.30
2023-06-26T00:05:48.389Z,20.90
2023-06-26T00:08:15.132Z,17.50
2023-06-26T00:10:41.961Z,22.30
2023-06-26T00:13:08.707Z,11.60
2023-06-26T00:15:35.435Z,6.10
2023-06-26T00:18:04.774Z,1.00
2023-06-26T00:20:35.162Z,1.00
2023-06-26T00:23:02.130Z,1.00
2023-06-26T00:25:28.860Z,1.00
2023-06-26T00:27:55.736Z,1.00
2023-06-26T00:30:22.494Z,1.00
2023-06-26T00:32:49.231Z,1.00
2023-06-26T00:35:16.074Z,1.00
2023-06-26T00:37:42.848Z,1.00
2023-06-26T00:40:10.150Z,9.50
2023-06-26T00:42:36.914Z,12.40
2023-06-26T00:45:04.640Z,11.50
2023-06-26T00:47:31.648Z,31.40
2023-06-26T00:49:58.485Z,23.60
2023-06-26T00:52:25.330Z,22.00
2023-06-26T00:54:52.738Z,16.60
2023-06-26T00:57:20.037Z,25.20
2023-06-26T00:59:47.013Z,42.80
2023-06-26T01:02:18.744Z,42.20
2023-06-26T01:04:48.044Z,44.00
2023-06-26T01:07:16.330Z,47.20
2023-06-26T01:09:43.773Z,54.10
2023-06-26T01:12:11.208Z,52.90
2023-06-26T01:14:38.069Z,53.10
2023-06-26T01:17:05.622Z,53.90
2023-06-26T01:19:34.663Z,37.00
2023-06-26T01:22:24.636Z,30.20
2023-06-26T01:25:19.061Z,27.00
2023-06-26T01:27:51.913Z,32.60
2023-06-26T01:30:20.575Z,29.30
2023-06-26T01:32:48.102Z,31.60
2023-06-26T01:35:15.944Z,43.60
2023-06-26T01:37:42.764Z,52.60
2023-06-26T01:40:10.886Z,43.30
2023-06-26T01:42:37.791Z,39.30
2023-06-26T01:45:19.878Z,45.90
2023-06-26T01:47:51.917Z,60.40
2023-06-26T01:50:23.838Z,66.50
2023-06-26T01:53:02.867Z,72.40
2023-06-26T01:55:34.923Z,69.80
2023-06-26T01:58:01.995Z,73.50
2023-06-26T02:00:29.885Z,81.40
2023-06-26T02:02:56.708Z,88.40
2023-06-26T02:05:24.792Z,86.20
2023-06-26T02:07:52.577Z,86.10
2023-06-26T02:10:19.563Z,89.60
2023-06-26T02:12:46.398Z,91.10
2023-06-26T02:15:13.314Z,94.10
2023-06-26T02:17:40.107Z,93.50
2023-06-26T02:20:08.875Z,94.30
2023-06-26T02:22:35.634Z,95.00
2023-06-26T02:25:02.413Z,95.50
2023-06-26T02:27:29.189Z,94.30
2023-06-26T02:29:55.925Z,96.30
2023-06-26T02:32:22.693Z,99.40
2023-06-26T02:34:49.438Z,99.30
2023-06-26T02:37:17.272Z,99.90
2023-06-26T02:39:44.132Z,99.90
2023-06-26T02:42:10.891Z,99.50
2023-06-26T02:44:37.684Z,97.30
2023-06-26T02:47:04.652Z,95.90
2023-06-26T02:49:31.396Z,96.30
2023-06-26T02:51:58.184Z,94.80
2023-06-26T02:54:24.934Z,94.50
2023-06-26T02:56:51.756Z,95.70
2023-06-26T02:59:18.917Z,95.30
2023-06-26T03:01:45.737Z,95.20
2023-06-26T03:04:12.648Z,97.10
2023-06-26T03:06:39.456Z,97.50
2023-06-26T03:09:06.234Z,98.40
2023-06-26T03:11:32.947Z,99.30
2023-06-26T03:13:59.748Z,99.80
2023-06-26T03:16:26.568Z,99.90
2023-06-26T03:18:53.328Z,99.90
2023-06-26T03:21:20.161Z,99.90
2023-06-26T03:23:46.984Z,99.90
2023-06-26T03:26:15.788Z,99.90
2023-06-26T03:28:43.408Z,99.90
2023-06-26T03:31:10.215Z,99.90
2023-06-26T03:33:38.012Z,99.90
2023-06-26T03:36:05.116Z,99.90
2023-06-26T03:38:31.984Z,99.90
2023-06-26T03:40:58.787Z,99.30
2023-06-26T03:43:25.573Z,98.50
2023-06-26T03:45:52.332Z,97.50
2023-06-26T03:48:19.149Z,97.90
2023-06-26T03:50:46.361Z,96.90
2023-06-26T03:53:13.138Z,99.90
2023-06-26T03:55:40.821Z,99.90
2023-06-26T03:58:07.956Z,99.90
2023-06-26T04:00:34.703Z,99.90
2023-06-26T04:03:01.823Z,99.90
2023-06-26T04:05:28.559Z,99.40
2023-06-26T04:07:55.538Z,98.00
2023-06-26T04:10:22.414Z,90.00
2023-06-26T04:12:49.383Z,91.70
2023-06-26T04:15:16.305Z,91.20
2023-06-26T04:17:43.140Z,89.00
2023-06-26T04:20:10.291Z,86.10
2023-06-26T04:22:37.075Z,85.60
2023-06-26T04:25:04.791Z,72.50
2023-06-26T04:27:31.578Z,67.10
2023-06-26T04:29:58.642Z,62.90
2023-06-26T04:32:25.384Z,52.00
2023-06-26T04:34:52.145Z,45.60
2023-06-26T04:37:18.874Z,56.70
2023-06-26T04:39:45.712Z,40.90
2023-06-26T04:42:13.410Z,34.00
2023-06-26T04:44:42.112Z,28.60
2023-06-26T04:47:09.695Z,24.20
2023-06-26T04:49:39.104Z,15.50
2023-06-26T04:52:06.422Z,20.60
2023-06-26T04:54:33.173Z,20.00
2023-06-26T04:57:01.044Z,13.10
2023-06-26T04:59:27.853Z,19.70
2023-06-26T05:01:54.704Z,14.80
2023-06-26T05:04:21.546Z,10.60
2023-06-26T05:06:48.403Z,11.10
2023-06-26T05:09:15.265Z,7.50
2023-06-26T05:11:42.133Z,7.30
2023-06-26T05:14:10.149Z,1.00
2023-06-26T05:16:37.242Z,1.00
2023-06-26T05:19:04.098Z,1.00
2023-06-26T05:21:31.266Z,1.00
2023-06-26T05:23:59.097Z,1.00
2023-06-26T05:26:27.595Z,1.00
2023-06-26T05:31:37.159Z,1.00
2023-06-26T05:34:05.095Z,1.00
2023-06-26T05:36:34.660Z,1.00
2023-06-26T05:39:01.738Z,1.00
2023-06-26T05:41:29.302Z,1.00
2023-06-26T05:43:56.212Z,1.00
2023-06-26T05:46:23.412Z,1.00
2023-06-26T05:48:50.524Z,1.00
2023-06-26T05:51:17.682Z,1.00
2023-06-26T05:53:45.114Z,1.00
2023-06-26T05:56:12.260Z,1.00
2023-06-26T05:58:39.457Z,1.00
2023-06-26T06:01:06.368Z,99.90
2023-06-26T06:03:33.472Z,99.90
2023-06-26T06:06:00.476Z,99.90
2023-06-26T06:08:27.599Z,1.00
2023-06-26T06:10:54.617Z,1.00
2023-06-26T06:13:21.621Z,1.00
2023-06-26T06:15:48.465Z,99.90
2023-06-26T06:18:15.465Z,99.90
2023-06-26T06:20:42.411Z,99.90
2023-06-26T06:23:09.445Z,99.90
2023-06-26T06:25:36.460Z,99.90
2023-06-26T06:28:05.536Z,93.70
2023-06-26T06:30:44.165Z,78.30
2023-06-26T06:33:12.550Z,59.30
2023-06-26T06:35:39.480Z,40.30
2023-06-26T06:38:06.561Z,22.90
2023-06-26T06:40:33.695Z,13.90
2023-06-26T06:43:00.533Z,1.00
2023-06-26T06:45:27.312Z,1.00
2023-06-26T06:47:54.064Z,1.00
2023-06-26T06:50:20.862Z,1.00
2023-06-26T06:52:47.621Z,1.00
2023-06-26T06:55:14.384Z,1.00
2023-06-26T06:57:41.536Z,1.00
2023-06-26T07:00:11.203Z,1.00
2023-06-26T07:02:39.556Z,1.00
2023-06-26T07:05:07.029Z,1.00
2023-06-26T07:07:35.887Z,1.00
2023-06-26T07:10:05.362Z,1.00
2023-06-26T07:12:34.669Z,1.00
2023-06-26T07:15:03.896Z,1.00
2023-06-26T07:17:30.823Z,1.00
2023-06-26T07:19:57.962Z,1.00
2023-06-26T07:22:24.869Z,1.00
2023-06-26T07:24:51.549Z,1.00
2023-06-26T07:27:21.460Z,1.00
2023-06-26T07:29:48.164Z,1.00
2023-06-26T07:32:15.777Z,1.00
2023-06-26T07:34:42.772Z,1.00
2023-06-26T07:37:09.555Z,1.00
2023-06-26T07:39:36.370Z,1.00
2023-06-26T07:42:03.308Z,1.00
2023-06-26T07:44:30.151Z,1.00
2023-06-26T07:46:57.084Z,1.00
2023-06-26T07:49:23.860Z,1.00
2023-06-26T07:51:50.659Z,1.00
2023-06-26T07:54:17.431Z,1.00
2023-06-26T07:57:05.353Z,1.00
2023-06-26T07:59:32.417Z,1.00
2023-06-26T08:02:00.118Z,1.00
2023-06-26T08:04:30.899Z,1.00
2023-06-26T08:06:59.552Z,1.00
2023-06-26T08:09:29.634Z,1.00
2023-06-26T08:11:57.163Z,1.00
2023-06-26T08:14:24.578Z,1.00
2023-06-26T08:16:51.987Z,1.00
2023-06-26T08:19:19.160Z,1.00
2023-06-26T08:21:47.137Z,1.00
2023-06-26T08:24:14.447Z,1.00
2023-06-26T08:26:41.482Z,1.00
2023-06-26T08:29:12.739Z,1.00
2023-06-26T08:31:40.956Z,1.00
2023-06-26T08:34:09.596Z,1.00
2023-06-26T08:36:37.021Z,1.00
2023-06-26T08:39:06.071Z,1.00
2023-06-26T08:41:33.404Z,1.00
2023-06-26T08:44:00.273Z,1.00
2023-06-26T08:46:27.249Z,1.00
2023-06-26T08:48:58.325Z,1.00
2023-06-26T08:51:29.622Z,1.00
2023-06-26T08:54:01.402Z,1.00
2023-06-26T08:56:36.998Z,1.00
2023-06-26T08:59:04.772Z,1.00
2023-06-26T09:01:32.740Z,1.00
2023-06-26T09:04:00.329Z,1.00
2023-06-26T09:06:27.538Z,1.00
2023-06-26T09:08:54.602Z,1.00
2023-06-26T09:11:21.495Z,1.00
2023-06-26T09:13:48.981Z,1.00
2023-06-26T09:16:16.345Z,1.00
2023-06-26T09:18:46.115Z,1.00
2023-06-26T09:21:13.817Z,1.00
2023-06-26T09:23:44.183Z,1.00
2023-06-26T09:26:12.780Z,1.00
2023-06-26T09:28:40.212Z,1.00
2023-06-26T09:31:09.005Z,1.00
2023-06-26T09:33:38.250Z,1.00
2023-06-26T09:36:10.829Z,1.00
2023-06-26T09:38:37.647Z,1.00
2023-06-26T09:41:05.630Z,1.00
2023-06-26T09:43:33.159Z,1.00
2023-06-26T09:46:01.557Z,1.00
2023-06-26T09:48:30.087Z,1.00
2023-06-26T09:51:12.169Z,1.00
2023-06-26T09:53:40.267Z,1.00
2023-06-26T09:56:08.485Z,1.00
2023-06-26T09:58:37.311Z,1.00
2023-06-26T10:01:04.589Z,1.00
2023-06-26T10:03:31.573Z,1.00
2023-06-26T10:06:00.812Z,1.00
2023-06-26T10:08:28.343Z,1.00
2023-06-26T10:10:55.962Z,1.00
2023-06-26T10:13:38.865Z,1.00
2023-06-26T10:16:10.073Z,1.00
2023-06-26T10:18:39.785Z,1.00
2023-06-26T10:21:08.063Z,1.00
2023-06-26T10:23:37.531Z,1.00
2023-06-26T10:26:04.824Z,1.00
2023-06-26T10:28:34.880Z,1.00
2023-06-26T10:31:04.131Z,1.00
2023-06-26T10:33:31.711Z,1.00
2023-06-26T10:36:19.897Z,1.00
2023-06-26T10:39:06.301Z,1.00
2023-06-26T10:41:53.147Z,1.00
2023-06-26T10:44:45.160Z,1.00
2023-06-26T10:47:12.902Z,1.00
2023-06-26T10:49:40.673Z,1.00
2023-06-26T10:52:07.707Z,1.00
2023-06-26T10:54:34.817Z,1.00
2023-06-26T10:57:05.068Z,1.00
2023-06-26T10:59:32.582Z,1.00
2023-06-26T11:02:03.845Z,1.00
2023-06-26T11:04:41.925Z,1.00
2023-06-26T11:07:27.993Z,1.00
2023-06-26T11:10:10.248Z,1.00
2023-06-26T11:12:45.443Z,1.00
2023-06-26T11:15:14.558Z,1.00
2023-06-26T11:17:42.638Z,1.00
2023-06-26T11:20:11.625Z,1.00
2023-06-26T11:22:39.924Z,1.00
2023-06-26T11:25:08.224Z,1.00
2023-06-26T11:27:45.063Z,1.00
2023-06-26T11:30:23.717Z,1.00
2023-06-26T11:32:50.614Z,1.00
2023-06-26T11:35:35.393Z,1.00
2023-06-26T11:38:06.931Z,1.00
2023-06-26T11:40:38.476Z,1.00
2023-06-26T11:43:05.558Z,1.00
2023-06-26T11:45:33.224Z,1.00
2023-06-26T11:48:01.798Z,1.00
2023-06-26T11:50:29.090Z,1.00
2023-06-26T11:53:00.527Z,1.00
2023-06-26T11:55:27.990Z,1.00
2023-06-26T11:57:56.360Z,1.00
2023-06-26T12:00:24.294Z,1.00
2023-06-26T12:02:52.813Z,1.00
2023-06-26T12:05:21.343Z,1.00
2023-06-26T12:07:50.502Z,1.00
2023-06-26T12:10:18.395Z,1.00
2023-06-26T12:12:46.856Z,1.00
2023-06-26T12:15:16.453Z,1.00
2023-06-26T12:17:44.062Z,1.00
2023-06-26T12:20:23.957Z,1.00
2023-06-26T12:22:51.050Z,1.00
2023-06-26T12:25:24.147Z,1.00
2023-06-26T12:27:51.208Z,1.00
2023-06-26T12:30:18.060Z,1.00
2023-06-26T12:32:48.459Z,1.00
2023-06-26T12:35:16.853Z,1.00
2023-06-26T12:37:45.706Z,1.00
2023-06-26T12:40:24.556Z,1.00
2023-06-26T12:42:51.347Z,1.00
2023-06-26T12:47:48.017Z,1.00
2023-06-26T12:50:14.808Z,1.00
2023-06-26T12:52:41.632Z,1.00
2023-06-26T12:55:09.195Z,1.00
2023-06-26T12:57:35.962Z,1.00
2023-06-26T13:00:03.285Z,1.00
2023-06-26T13:02:30.904Z,1.00
2023-06-26T13:04:57.786Z,1.00
2023-06-26T13:07:26.830Z,1.00
2023-06-26T13:09:54.197Z,1.00
2023-06-26T13:12:20.977Z,1.00
2023-06-26T13:14:47.838Z,1.00
2023-06-26T13:17:15.966Z,1.00
2023-06-26T13:19:42.864Z,1.00
2023-06-26T13:22:09.659Z,1.00
2023-06-26T13:24:36.466Z,1.00
2023-06-26T13:27:03.275Z,1.00
2023-06-26T13:29:30.430Z,1.00
2023-06-26T13:31:57.821Z,1.00
2023-06-26T13:34:25.598Z,1.00
2023-06-26T13:36:52.500Z,1.00
2023-06-26T13:39:19.618Z,1.00
2023-06-26T13:41:47.220Z,1.00
2023-06-26T13:44:27.822Z,1.00
2023-06-26T13:47:00.898Z,1.00
2023-06-26T13:49:27.811Z,1.00
2023-06-26T13:51:54.569Z,1.00
2023-06-26T13:54:21.340Z,1.00
2023-06-26T13:56:48.644Z,1.00
2023-06-26T13:59:16.006Z,1.00
2023-06-26T14:01:45.880Z,1.00
2023-06-26T14:04:12.757Z,1.00
2023-06-26T14:06:39.535Z,1.00
2023-06-26T14:09:06.310Z,1.00
2023-06-26T14:11:33.717Z,1.00
2023-06-26T14:14:00.905Z,1.00
2023-06-26T14:16:29.884Z,1.00
2023-06-26T14:18:57.469Z,1.00
2023-06-26T14:21:24.629Z,1.00
2023-06-26T14:23:51.386Z,1.00
2023-06-26T14:26:18.134Z,1.00
2023-06-26T14:28:46.047Z,1.00
2023-06-26T14:31:12.870Z,1.00
2023-06-26T14:33:39.988Z,1.00
2023-06-26T14:36:06.880Z,1.00
2023-06-26T14:38:33.836Z,1.00
2023-06-26T14:41:00.817Z,1.00
2023-06-26T14:43:28.068Z,1.00
2023-06-26T14:45:56.403Z,1.00
2023-06-26T14:48:23.752Z,1.00
2023-06-26T14:50:50.558Z,1.00
2023-06-26T14:53:18.223Z,1.00
2023-06-26T14:55:45.070Z,1.00
2023-06-26T14:58:12.005Z,1.00
2023-06-26T15:00:39.313Z,1.00
2023-06-26T15:03:06.417Z,1.00
2023-06-26T15:05:33.411Z,1.00
2023-06-26T15:08:00.423Z,1.00
2023-06-26T15:10:28.891Z,1.00
2023-06-26T15:12:56.412Z,1.00
2023-06-26T15:15:23.552Z,1.00
2023-06-26T15:17:50.308Z,1.00
2023-06-26T15:20:17.169Z,1.00
2023-06-26T15:22:43.899Z,1.00
2023-06-26T15:25:10.671Z,1.00
2023-06-26T15:27:37.464Z,1.00
2023-06-26T15:30:04.739Z,1.00
2023-06-26T15:32:33.655Z,1.00
2023-06-26T15:35:01.065Z,1.00
2023-06-26T15:37:28.219Z,1.00
2023-06-26T15:39:55.050Z,1.00
2023-06-26T15:42:21.816Z,1.00
2023-06-26T15:44:48.807Z,1.00
2023-06-26T15:47:15.917Z,1.00
2023-06-26T15:49:42.665Z,1.00
2023-06-26T15:52:09.485Z,1.00
2023-06-26T15:54:36.220Z,1.00
2023-06-26T15:57:03.525Z,1.00
2023-06-26T15:59:30.304Z,1.00
2023-06-26T16:01:57.129Z,1.00
2023-06-26T16:04:23.955Z,1.00
2023-06-26T16:06:50.783Z,1.00
2023-06-26T16:09:17.718Z,1.00
2023-06-26T16:11:44.624Z,1.00
2023-06-26T16:14:11.628Z,1.00
2023-06-26T16:16:38.399Z,1.00
2023-06-26T16:19:08.069Z,1.00
2023-06-26T16:21:34.849Z,1.00
2023-06-26T16:24:02.234Z,1.00
2023-06-26T16:26:29.378Z,1.00
2023-06-26T16:28:56.484Z,1.00
2023-06-26T16:31:23.812Z,1.00
2023-06-26T16:33:50.743Z,1.00
2023-06-26T16:36:17.609Z,1.00
2023-06-26T16:38:44.460Z,1.00
2023-06-26T16:41:11.455Z,1.00
2023-06-26T16:43:39.267Z,1.00
2023-06-26T16:46:06.174Z,1.00
2023-06-26T16:48:33.068Z,1.00
2023-06-26T16:50:59.846Z,1.00
2023-06-26T16:53:26.750Z,1.00
2023-06-26T16:55:53.647Z,1.00
2023-06-26T16:58:20.996Z,1.00
2023-06-26T17:00:48.098Z,1.00
2023-06-26T17:03:15.742Z,1.00
2023-06-26T17:05:42.854Z,1.00
2023-06-26T17:08:11.549Z,1.00
2023-06-26T17:10:38.652Z,1.00
2023-06-26T17:13:05.889Z,1.00
2023-06-26T17:15:32.867Z,1.00
2023-06-26T17:17:59.785Z,1.00
2023-06-26T17:20:27.051Z,1.00
2023-06-26T17:22:53.935Z,1.00
2023-06-26T17:25:20.748Z,1.00
2023-06-26T17:27:47.549Z,1.00
2023-06-26T17:30:14.365Z,1.00
2023-06-26T17:32:41.214Z,1.00
2023-06-26T17:35:09.202Z,1.00
2023-06-26T17:37:36.439Z,1.00
2023-06-26T17:40:10.016Z,1.00
2023-06-26T17:42:43.659Z,1.00
2023-06-26T17:45:11.763Z,1.00
2023-06-26T17:47:41.027Z,1.00
2023-06-26T17:50:08.154Z,1.00
2023-06-26T17:52:35.091Z,1.00
2023-06-26T17:55:01.881Z,1.00
2023-06-26T17:57:28.711Z,1.00
2023-06-26T17:59:55.559Z,1.00
2023-06-26T18:02:22.416Z,1.00
2023-06-26T18:04:49.447Z,1.00
2023-06-26T18:07:17.127Z,1.00
2023-06-26T18:09:44.067Z,1.00
2023-06-26T18:12:10.992Z,1.00
2023-06-26T18:14:37.847Z,1.00
2023-06-26T18:17:04.961Z,1.00
2023-06-26T18:19:31.957Z,1.00
2023-06-26T18:21:58.816Z,1.00
2023-06-26T18:24:25.633Z,1.00
2023-06-26T18:26:52.452Z,1.00
2023-06-26T18:29:19.257Z,1.00
2023-06-26T18:31:46.047Z,1.00
2023-06-26T18:34:12.851Z,1.00
2023-06-26T18:36:39.719Z,1.00
2023-06-26T18:39:06.655Z,1.00
2023-06-26T18:41:34.380Z,1.00
2023-06-26T18:44:01.381Z,1.00
2023-06-26T18:46:28.741Z,1.00
2023-06-26T18:49:06.028Z,1.00
2023-06-26T18:51:33.673Z,1.00
2023-06-26T18:54:03.807Z,1.00
2023-06-26T18:56:31.826Z,1.00
2023-06-26T18:58:58.875Z,1.00
2023-06-26T19:01:26.099Z,1.00
2023-06-26T19:03:53.448Z,1.00
2023-06-26T19:06:20.419Z,1.00
2023-06-26T19:08:47.382Z,1.00
2023-06-26T19:11:15.370Z,1.00
2023-06-26T19:13:42.247Z,1.00
2023-06-26T19:16:09.401Z,1.00
2023-06-26T19:18:37.454Z,1.00
2023-06-26T19:21:04.383Z,1.00
2023-06-26T19:23:31.266Z,1.00
2023-06-26T19:25:58.525Z,1.00
2023-06-26T19:28:26.332Z,1.00
2023-06-26T19:30:54.321Z,1.00
2023-06-26T19:33:21.223Z,1.00
2023-06-26T19:35:47.974Z,1.00
2023-06-26T19:38:15.800Z,1.00
2023-06-26T19:40:42.531Z,1.00
2023-06-26T19:43:11.089Z,1.00
2023-06-26T19:45:38.060Z,1.00
2023-06-26T19:48:05.749Z,1.00
2023-06-26T19:50:32.555Z,1.00
2023-06-26T19:52:59.363Z,1.00
2023-06-26T19:55:26.315Z,1.00
2023-06-26T19:57:53.326Z,1.00
2023-06-26T20:00:20.365Z,1.00
2023-06-26T20:02:47.342Z,1.00
2023-06-26T20:05:14.376Z,1.00
2023-06-26T20:07:41.307Z,1.00
2023-06-26T20:10:08.647Z,1.00
2023-06-26T20:12:36.030Z,1.00
2023-06-26T20:15:03.940Z,1.00
2023-06-26T20:17:30.745Z,1.00
2023-06-26T20:19:57.620Z,1.00
2023-06-26T20:22:25.348Z,1.00
2023-06-26T20:24:52.116Z,1.00
2023-06-26T20:27:18.949Z,1.00
2023-06-26T20:29:45.840Z,1.00
2023-06-26T20:32:12.692Z,1.00
2023-06-26T20:34:39.528Z,1.00
2023-06-26T20:37:06.577Z,1.00
2023-06-26T20:39:33.716Z,1.00
2023-06-26T20:42:00.844Z,1.00
2023-06-26T20:44:27.951Z,1.00
2023-06-26T20:46:59.949Z,1.00
2023-06-26T20:49:28.507Z,1.00
2023-06-26T20:51:57.698Z,1.00
2023-06-26T20:54:25.027Z,1.00
2023-06-26T20:56:51.782Z,1.00
2023-06-26T20:59:18.645Z,1.00
2023-06-26T21:01:45.462Z,1.00
2023-06-26T21:04:12.297Z,1.00
2023-06-26T21:06:39.037Z,1.00
2023-06-26T21:09:05.847Z,1.00
2023-06-26T21:11:32.609Z,1.00
2023-06-26T21:13:59.374Z,1.00
2023-06-26T21:16:26.130Z,1.00
2023-06-26T21:18:52.932Z,1.00
2023-06-26T21:21:19.738Z,1.00
2023-06-26T21:23:46.596Z,1.00
2023-06-26T21:26:13.448Z,1.00
2023-06-26T21:28:40.212Z,1.00
2023-06-26T21:31:07.029Z,1.00
2023-06-26T21:33:33.904Z,1.00
2023-06-26T21:36:00.761Z,1.00
2023-06-26T21:38:27.889Z,1.00
2023-06-26T21:40:54.734Z,1.00
2023-06-26T21:43:21.475Z,1.00
2023-06-26T21:45:49.860Z,1.00
2023-06-26T21:48:16.621Z,1.00
2023-06-26T21:50:43.408Z,1.00
2023-06-26T21:53:10.316Z,1.00
2023-06-26T21:55:37.252Z,1.00
2023-06-26T21:58:04.303Z,1.00
2023-06-26T22:00:31.062Z,1.00
2023-06-26T22:02:57.947Z,1.00
2023-06-26T22:05:24.800Z,1.00
2023-06-26T22:07:56.300Z,1.00
2023-06-26T22:10:24.715Z,1.00
2023-06-26T22:12:51.642Z,1.00
2023-06-26T22:15:18.977Z,1.00
2023-06-26T22:17:51.167Z,1.00
2023-06-26T22:20:18.610Z,1.00
2023-06-26T22:22:46.235Z,1.00
2023-06-26T22:25:14.865Z,1.00
2023-06-26T22:27:46.877Z,1.00
2023-06-26T22:30:15.050Z,1.00
2023-06-26T22:32:42.999Z,1.00
2023-06-26T22:35:10.141Z,1.00
2023-06-26T22:37:36.980Z,1.00
2023-06-26T22:40:04.828Z,1.00
2023-06-26T22:42:31.610Z,1.00
2023-06-26T22:44:58.367Z,1.00
2023-06-26T22:47:25.326Z,1.00
2023-06-26T22:49:52.378Z,1.00
2023-06-26T22:52:19.164Z,1.00
2023-06-26T22:54:45.932Z,1.00
2023-06-26T22:57:12.724Z,1.00
2023-06-26T22:59:39.474Z,1.00
2023-06-26T23:02:06.701Z,1.00
2023-06-26T23:04:33.500Z,1.00
2023-06-26T23:07:00.824Z,1.00
2023-06-26T23:09:28.344Z,1.00
2023-06-26T23:11:55.453Z,1.00
2023-06-26T23:14:22.440Z,1.00
2023-06-26T23:17:02.505Z,1.00
2023-06-26T23:19:30.378Z,1.00
2023-06-26T23:21:58.681Z,1.00
2023-06-26T23:24:33.805Z,1.00
2023-06-26T23:27:01.025Z,1.00
2023-06-26T23:29:28.323Z,1.00
2023-06-26T23:31:55.347Z,1.00
2023-06-26T23:34:22.213Z,1.00
2023-06-26T23:36:52.940Z,1.00
2023-06-26T23:39:20.477Z,1.00
2023-06-26T23:41:50.713Z,1.00
2023-06-26T23:44:21.107Z,1.00
2023-06-26T23:46:49.019Z,1.00
2023-06-26T23:49:16.099Z,1.00
2023-06-26T23:51:42.946Z,1.00
2023-06-26T23:54:09.699Z,1.00
2023-06-26T23:56:36.583Z,1.00
2023-06-26T23:59:04.528Z,1.00
